createdAt,value
2023-02-04T04:02:06.865Z,100.00
2023-02-04T04:05:16.622Z,100.00
2023-02-04T04:08:26.577Z,100.00
2023-02-04T04:11:36.187Z,100.00
2023-02-04T04:14:45.868Z,100.00
2023-02-04T04:17:56.769Z,100.00
2023-02-04T04:21:06.609Z,100.00
2023-02-04T04:24:16.208Z,100.00
2023-02-04T04:27:25.977Z,100.00
2023-02-04T04:30:35.565Z,100.00
2023-02-04T04:33:46.464Z,100.00
2023-02-04T04:36:56.072Z,100.00
2023-02-04T04:40:06.859Z,100.00
2023-02-04T04:43:16.439Z,100.00
2023-02-04T04:46:26.091Z,100.00
2023-02-04T04:49:37.014Z,100.00
2023-02-04T04:52:46.672Z,100.00
2023-02-04T04:55:56.286Z,100.00
2023-02-04T04:59:06.025Z,100.00
2023-02-04T05:02:15.543Z,100.00
2023-02-04T05:05:26.565Z,100.00
2023-02-04T05:08:36.675Z,100.00
2023-02-04T05:11:47.805Z,100.00
2023-02-04T05:14:57.537Z,100.00
2023-02-04T05:18:07.346Z,100.00
2023-02-04T05:21:18.161Z,100.00
2023-02-04T05:24:28.010Z,100.00
2023-02-04T05:27:37.671Z,100.00
2023-02-04T05:30:47.386Z,100.00
2023-02-04T05:33:57.084Z,100.00
2023-02-04T05:37:07.986Z,100.00
2023-02-04T05:40:17.792Z,100.00
2023-02-04T05:43:27.770Z,100.00
2023-02-04T05:46:38.428Z,100.00
2023-02-04T05:49:48.038Z,100.00
2023-02-04T05:52:58.931Z,100.00
2023-02-04T05:56:08.706Z,100.00
2023-02-04T05:59:18.540Z,100.00
2023-02-04T06:02:31.507Z,100.00
2023-02-04T06:05:41.364Z,100.00
2023-02-04T06:08:52.371Z,100.00
2023-02-04T06:12:02.181Z,100.00
2023-02-04T06:15:12.916Z,100.00
2023-02-04T06:18:22.589Z,100.00
2023-02-04T06:21:32.306Z,100.00
2023-02-04T06:24:43.090Z,100.00
2023-02-04T06:27:52.832Z,100.00
2023-02-04T06:31:02.619Z,100.00
2023-02-04T06:34:12.299Z,100.00
2023-02-04T06:37:24.253Z,100.00
2023-02-04T06:40:35.333Z,100.00
2023-02-04T06:43:44.894Z,100.00
2023-02-04T06:46:54.908Z,100.00
2023-02-04T06:50:04.727Z,100.00
2023-02-04T06:53:14.348Z,100.00
2023-02-04T06:56:26.842Z,100.00
2023-02-04T06:59:37.485Z,100.00
2023-02-04T07:02:47.103Z,100.00
2023-02-04T07:05:56.800Z,100.00
2023-02-04T07:09:06.347Z,100.00
2023-02-04T07:12:17.343Z,100.00
2023-02-04T07:15:27.028Z,100.00
2023-02-04T07:18:37.193Z,100.00
2023-02-04T07:21:46.764Z,100.00
2023-02-04T07:24:56.472Z,100.00
2023-02-04T07:28:07.512Z,100.00
2023-02-04T07:31:17.292Z,100.00
2023-02-04T07:34:26.890Z,100.00
2023-02-04T07:37:36.503Z,100.00
2023-02-04T07:40:46.084Z,100.00
2023-02-04T07:43:57.231Z,100.00
2023-02-04T07:47:06.844Z,100.00
2023-02-04T07:50:17.313Z,100.00
2023-02-04T07:53:26.942Z,100.00
2023-02-04T07:56:36.684Z,100.00
2023-02-04T07:59:47.569Z,100.00
2023-02-04T08:02:57.208Z,100.00
2023-02-04T08:06:07.007Z,100.00
2023-02-04T08:09:16.730Z,100.00
2023-02-04T08:12:26.280Z,100.00
2023-02-04T08:15:37.453Z,100.00
2023-02-04T08:18:47.006Z,100.00
2023-02-04T08:21:56.833Z,100.00
2023-02-04T08:25:06.736Z,100.00
2023-02-04T08:28:16.485Z,100.00
2023-02-04T08:31:27.444Z,100.00
2023-02-04T08:34:37.174Z,100.00
2023-02-04T08:37:46.740Z,100.00
2023-02-04T08:40:56.332Z,99.78
2023-02-04T08:44:06.358Z,99.83
2023-02-04T08:47:17.356Z,98.72
2023-02-04T08:50:28.717Z,98.15
2023-02-04T08:53:40.653Z,96.77
2023-02-04T08:56:50.236Z,96.74
2023-02-04T08:59:59.905Z,93.76
2023-02-04T09:03:10.798Z,91.36
2023-02-04T09:06:20.583Z,89.48
2023-02-04T09:09:30.255Z,89.11
2023-02-04T09:12:39.876Z,86.88
2023-02-04T09:15:49.450Z,85.14
2023-02-04T09:19:01.780Z,81.78
2023-02-04T09:22:13.157Z,82.40
2023-02-04T09:25:23.123Z,82.25
2023-02-04T09:28:33.010Z,81.91
2023-02-04T09:31:42.762Z,79.63
2023-02-04T09:34:53.655Z,78.77
2023-02-04T09:38:03.482Z,79.22
2023-02-04T09:41:14.310Z,78.41
2023-02-04T09:44:27.488Z,78.58
2023-02-04T09:47:37.498Z,79.64
2023-02-04T09:50:49.369Z,80.23
2023-02-04T09:54:09.731Z,80.72
2023-02-04T09:57:21.410Z,81.64
2023-02-04T10:00:32.852Z,81.31
2023-02-04T10:03:46.691Z,80.22
2023-02-04T10:06:58.823Z,80.13
2023-02-04T10:10:17.058Z,79.21
2023-02-04T10:13:32.246Z,79.84
2023-02-04T10:16:45.036Z,80.00
2023-02-04T10:19:54.690Z,79.44
2023-02-04T10:23:05.622Z,79.32
2023-02-04T10:26:16.458Z,79.61
2023-02-04T10:29:26.521Z,76.62
2023-02-04T10:32:36.179Z,73.45
2023-02-04T10:35:47.634Z,74.06
2023-02-04T10:39:02.211Z,71.35
2023-02-04T10:42:22.495Z,70.89
2023-02-04T10:45:32.956Z,69.96
2023-02-04T10:48:43.263Z,69.61
2023-02-04T10:51:53.820Z,68.78
2023-02-04T10:55:08.207Z,69.46
2023-02-04T10:58:25.647Z,69.37
2023-02-04T11:01:35.506Z,69.05
2023-02-04T11:04:45.081Z,70.76
2023-02-04T11:07:54.697Z,70.54
2023-02-04T11:11:08.460Z,70.82
2023-02-04T11:14:24.988Z,71.77
2023-02-04T11:17:36.135Z,70.97
2023-02-04T11:20:45.729Z,69.19
2023-02-04T11:24:07.449Z,66.74
2023-02-04T11:27:25.187Z,63.22
2023-02-04T11:30:34.903Z,61.47
2023-02-04T11:33:45.028Z,60.92
2023-02-04T11:36:59.240Z,60.25
2023-02-04T11:40:23.399Z,59.91
2023-02-04T11:43:37.397Z,58.16
2023-02-04T11:46:55.353Z,57.40
2023-02-04T11:50:14.181Z,59.11
2023-02-04T11:53:25.813Z,60.95
2023-02-04T11:56:35.357Z,61.91
2023-02-04T11:59:46.332Z,62.68
2023-02-04T12:02:59.070Z,63.60
2023-02-04T12:06:09.068Z,63.75
2023-02-04T12:09:26.134Z,61.30
2023-02-04T12:12:44.500Z,62.31
2023-02-04T12:16:00.680Z,63.54
2023-02-04T12:19:10.405Z,63.94
2023-02-04T12:22:19.996Z,64.82
2023-02-04T12:25:30.438Z,65.63
2023-02-04T12:28:40.308Z,66.26
2023-02-04T12:31:51.423Z,64.37
2023-02-04T12:35:01.047Z,63.38
2023-02-04T12:38:11.180Z,62.46
2023-02-04T12:41:20.805Z,59.34
2023-02-04T12:44:30.460Z,58.57
2023-02-04T12:47:42.417Z,59.02
2023-02-04T12:50:52.081Z,59.84
2023-02-04T12:54:01.741Z,58.87
2023-02-04T12:57:11.858Z,59.98
2023-02-04T13:00:22.276Z,59.85
2023-02-04T13:03:33.620Z,60.67
2023-02-04T13:06:43.227Z,61.39
2023-02-04T13:09:53.307Z,61.06
2023-02-04T13:13:04.670Z,61.26
2023-02-04T13:16:14.565Z,62.74
2023-02-04T13:19:25.517Z,61.99
2023-02-04T13:22:35.185Z,61.71
2023-02-04T13:25:45.115Z,62.04
2023-02-04T13:28:54.825Z,62.46
2023-02-04T13:32:04.583Z,63.23
2023-02-04T13:35:15.707Z,63.05
2023-02-04T13:38:25.887Z,63.30
2023-02-04T13:41:36.265Z,63.67
2023-02-04T13:44:45.980Z,63.85
2023-02-04T13:47:55.633Z,63.18
2023-02-04T13:51:06.611Z,63.35
2023-02-04T13:54:16.390Z,63.14
2023-02-04T13:57:25.982Z,63.34
2023-02-04T14:00:35.817Z,63.58
2023-02-04T14:03:46.497Z,63.08
2023-02-04T14:06:57.779Z,62.88
2023-02-04T14:10:08.575Z,62.71
2023-02-04T14:13:18.667Z,62.77
2023-02-04T14:16:28.434Z,63.17
2023-02-04T14:19:38.157Z,63.44
2023-02-04T14:22:49.076Z,65.00
2023-02-04T14:25:59.045Z,64.58
2023-02-04T14:29:08.827Z,64.74
2023-02-04T14:32:18.477Z,65.25
2023-02-04T14:35:28.516Z,65.36
2023-02-04T14:38:39.688Z,64.70
2023-02-04T14:41:49.383Z,64.66
2023-02-04T14:44:59.546Z,65.51
2023-02-04T14:48:09.616Z,65.95
2023-02-04T14:51:22.328Z,67.90
2023-02-04T14:54:33.401Z,68.75
2023-02-04T14:57:45.606Z,68.60
2023-02-04T15:00:55.504Z,69.78
2023-02-04T15:04:05.529Z,69.83
2023-02-04T15:07:15.095Z,70.22
2023-02-04T15:10:26.118Z,70.54
2023-02-04T15:13:35.933Z,71.08
2023-02-04T15:16:48.780Z,72.71
2023-02-04T15:19:58.591Z,73.44
2023-02-04T15:23:08.355Z,73.62
2023-02-04T15:26:19.417Z,73.84
2023-02-04T15:29:29.100Z,74.88
2023-02-04T15:32:40.037Z,75.05
2023-02-04T15:35:49.825Z,75.19
2023-02-04T15:38:59.357Z,76.63
2023-02-04T15:42:10.852Z,76.93
2023-02-04T15:45:20.418Z,77.90
2023-02-04T15:48:30.367Z,78.38
2023-02-04T15:51:39.996Z,80.00
2023-02-04T15:54:49.639Z,79.86
2023-02-04T15:58:00.870Z,81.04
2023-02-04T16:01:10.780Z,81.43
2023-02-04T16:04:20.967Z,81.14
2023-02-04T16:07:30.811Z,82.05
2023-02-04T16:10:42.163Z,82.65
2023-02-04T16:13:53.428Z,83.46
2023-02-04T16:17:03.018Z,84.70
2023-02-04T16:20:13.529Z,85.34
2023-02-04T16:23:23.194Z,85.87
2023-02-04T16:26:33.168Z,86.36
2023-02-04T16:29:44.121Z,87.19
2023-02-04T16:32:53.758Z,87.54
2023-02-04T16:36:05.505Z,88.60
2023-02-04T16:39:15.226Z,90.59
2023-02-04T16:42:24.836Z,91.62
2023-02-04T16:45:36.039Z,92.14
2023-02-04T16:48:45.693Z,92.02
2023-02-04T16:51:55.870Z,93.23
2023-02-04T16:55:06.042Z,95.98
2023-02-04T16:58:16.891Z,96.10
2023-02-04T17:01:27.750Z,96.31
2023-02-04T17:04:37.537Z,96.67
2023-02-04T17:07:47.074Z,96.33
2023-02-04T17:11:07.805Z,97.38
2023-02-04T17:14:17.449Z,98.54
2023-02-04T17:17:28.408Z,100.00
2023-02-04T17:20:38.043Z,100.00
2023-02-04T17:23:47.941Z,100.00
2023-02-04T17:26:57.642Z,100.00
2023-02-04T17:30:08.197Z,100.00
2023-02-04T17:33:19.064Z,100.00
2023-02-04T17:36:29.365Z,100.00
2023-02-04T17:39:39.258Z,100.00
2023-02-04T17:42:48.978Z,100.00
2023-02-04T17:45:58.647Z,100.00
2023-02-04T17:49:10.007Z,100.00
2023-02-04T17:52:19.705Z,100.00
2023-02-04T17:55:31.538Z,100.00
2023-02-04T17:58:42.570Z,100.00
2023-02-04T18:01:55.325Z,100.00
2023-02-04T18:05:14.624Z,100.00
2023-02-04T18:08:27.028Z,100.00
2023-02-04T18:11:39.279Z,100.00
2023-02-04T18:14:48.964Z,100.00
2023-02-04T18:18:03.481Z,100.00
2023-02-04T18:21:20.889Z,100.00
2023-02-04T18:24:36.002Z,100.00
2023-02-04T18:27:46.329Z,100.00
2023-02-04T18:31:00.543Z,100.00
2023-02-04T18:34:20.988Z,100.00
2023-02-04T18:37:34.155Z,100.00
2023-02-04T18:40:43.789Z,100.00
2023-02-04T18:44:02.281Z,100.00
2023-02-04T18:47:29.435Z,100.00
2023-02-04T18:50:39.064Z,100.00
2023-02-04T18:53:50.092Z,100.00
2023-02-04T18:57:21.626Z,100.00
2023-02-04T19:00:34.438Z,100.00
2023-02-04T19:03:49.187Z,100.00
2023-02-04T19:06:59.528Z,100.00
2023-02-04T19:10:27.706Z,100.00
2023-02-04T19:13:40.144Z,100.00
2023-02-04T19:16:53.125Z,100.00
2023-02-04T19:20:07.151Z,100.00
2023-02-04T19:23:19.825Z,100.00
2023-02-04T19:26:35.128Z,100.00
2023-02-04T19:29:44.722Z,100.00
2023-02-04T19:32:57.411Z,100.00
2023-02-04T19:36:24.510Z,100.00
2023-02-04T19:39:38.527Z,100.00
2023-02-04T19:42:49.388Z,100.00
2023-02-04T19:45:59.873Z,100.00
2023-02-04T19:49:17.400Z,100.00
2023-02-04T19:52:34.705Z,100.00
2023-02-04T19:55:45.476Z,100.00
2023-02-04T19:58:57.762Z,100.00
2023-02-04T20:02:22.978Z,100.00
2023-02-04T20:05:33.901Z,100.00
2023-02-04T20:08:47.033Z,100.00
2023-02-04T20:11:59.373Z,100.00
2023-02-04T20:15:18.553Z,100.00
2023-02-04T20:18:28.775Z,100.00
2023-02-04T20:21:38.369Z,100.00
2023-02-04T20:24:50.335Z,100.00
2023-02-04T20:28:04.165Z,100.00
2023-02-04T20:31:24.766Z,100.00
2023-02-04T20:34:35.950Z,100.00
2023-02-04T20:37:52.226Z,100.00
2023-02-04T20:41:01.885Z,100.00
2023-02-04T20:44:16.321Z,100.00
2023-02-04T20:47:30.117Z,100.00
2023-02-04T20:50:44.204Z,100.00
2023-02-04T20:53:55.261Z,100.00
2023-02-04T20:57:18.188Z,100.00
2023-02-04T21:00:31.936Z,100.00
2023-02-04T21:03:44.041Z,100.00
2023-02-04T21:06:55.682Z,100.00
2023-02-04T21:10:05.994Z,100.00
2023-02-04T21:13:15.637Z,100.00
2023-02-04T21:16:25.289Z,100.00
2023-02-04T21:19:36.098Z,100.00
2023-02-04T21:22:45.977Z,100.00
2023-02-04T21:25:55.630Z,100.00
2023-02-04T21:29:05.246Z,100.00
2023-02-04T21:32:14.855Z,100.00
2023-02-04T21:35:26.099Z,100.00
2023-02-04T21:38:35.677Z,100.00
2023-02-04T21:41:45.404Z,100.00
2023-02-04T21:44:55.759Z,100.00
2023-02-04T21:48:07.736Z,100.00
2023-02-04T21:51:18.600Z,100.00
2023-02-04T21:54:28.275Z,100.00
2023-02-04T21:57:38.939Z,100.00
2023-02-04T22:00:48.618Z,100.00
2023-02-04T22:04:00.904Z,100.00
2023-02-04T22:07:11.941Z,100.00
2023-02-04T22:10:25.312Z,100.00
2023-02-04T22:13:35.600Z,100.00
2023-02-04T22:16:46.450Z,100.00
2023-02-04T22:19:56.225Z,100.00
2023-02-04T22:23:07.855Z,100.00
2023-02-04T22:26:18.621Z,100.00
2023-02-04T22:29:29.966Z,100.00
2023-02-04T22:32:40.198Z,100.00
2023-02-04T22:35:49.766Z,100.00
2023-02-04T22:39:00.769Z,100.00
2023-02-04T22:42:10.381Z,100.00
2023-02-04T22:45:20.112Z,100.00
2023-02-04T22:48:29.704Z,100.00
2023-02-04T22:51:39.384Z,100.00
2023-02-04T22:54:50.362Z,100.00
2023-02-04T22:58:00.047Z,100.00
2023-02-04T23:01:09.720Z,100.00
2023-02-04T23:04:19.448Z,100.00
2023-02-04T23:07:29.058Z,100.00
2023-02-04T23:10:40.104Z,100.00
2023-02-04T23:13:49.956Z,100.00
2023-02-04T23:17:00.180Z,100.00
2023-02-04T23:20:10.469Z,100.00
2023-02-04T23:23:20.315Z,100.00
2023-02-04T23:26:31.256Z,100.00
2023-02-04T23:29:41.482Z,100.00
2023-02-04T23:32:51.393Z,100.00
2023-02-04T23:36:01.206Z,100.00
2023-02-04T23:39:10.900Z,100.00
2023-02-04T23:42:21.850Z,100.00
2023-02-04T23:45:32.156Z,100.00
2023-02-04T23:48:42.222Z,100.00
2023-02-04T23:51:52.829Z,100.00
2023-02-04T23:55:02.495Z,100.00
2023-02-04T23:58:13.534Z,100.00
